createdAt,value
2023-02-02T00:06:33.580Z,77024.31
2023-02-02T00:13:35.828Z,77024.31
2023-02-02T00:20:37.828Z,77020.22
2023-02-02T00:27:39.883Z,77016.13
2023-02-02T00:34:41.852Z,77007.97
2023-02-02T00:41:43.767Z,77003.88
2023-02-02T00:48:45.765Z,76995.69
2023-02-02T00:55:47.901Z,76989.56
2023-02-02T01:02:51.083Z,76987.53
2023-02-02T01:09:53.057Z,76987.53
2023-02-02T01:16:55.029Z,77001.84
2023-02-02T01:23:57.010Z,76993.66
2023-02-02T01:30:59.315Z,76995.69
2023-02-02T01:38:01.594Z,77010.00
2023-02-02T01:45:17.668Z,77012.06
2023-02-02T01:52:23.015Z,77012.06
2023-02-02T01:59:25.620Z,77012.06
2023-02-02T02:06:28.725Z,77007.97
2023-02-02T02:13:50.163Z,77010.00
2023-02-02T02:21:48.729Z,77007.97
2023-02-02T02:29:09.845Z,77012.06
2023-02-02T02:36:21.432Z,76993.66
2023-02-02T02:43:28.343Z,76991.59
2023-02-02T02:50:30.350Z,76983.44
2023-02-02T02:57:45.383Z,76987.53
2023-02-02T03:05:06.242Z,76987.53
2023-02-02T03:12:08.470Z,76993.66
2023-02-02T03:19:10.550Z,76997.75
2023-02-02T03:26:12.774Z,76997.75
2023-02-02T03:33:15.405Z,77005.91
2023-02-02T03:40:17.880Z,77010.00
2023-02-02T03:47:19.825Z,77010.00
2023-02-02T03:54:21.813Z,77022.28
2023-02-02T04:01:29.137Z,77048.84
2023-02-02T04:08:31.869Z,77026.34
2023-02-02T04:15:34.062Z,77032.50
2023-02-02T04:22:36.077Z,77038.63
2023-02-02T04:29:37.982Z,77036.56
2023-02-02T04:36:40.062Z,77044.75
2023-02-02T04:43:42.074Z,77050.88
2023-02-02T04:50:44.065Z,77042.72
2023-02-02T04:57:46.259Z,77044.75
2023-02-02T05:04:48.278Z,77038.63
2023-02-02T05:11:50.485Z,77040.66
2023-02-02T05:18:55.324Z,77040.66
2023-02-02T05:25:57.797Z,77036.56
2023-02-02T05:32:59.774Z,77040.66
2023-02-02T05:40:01.922Z,77036.56
2023-02-02T05:47:03.913Z,77026.34
2023-02-02T05:54:06.062Z,77028.41
2023-02-02T06:01:08.833Z,77026.34
2023-02-02T06:08:10.843Z,77036.56
2023-02-02T06:15:12.902Z,77020.22
2023-02-02T06:22:14.866Z,77016.13
2023-02-02T06:29:16.879Z,77012.06
2023-02-02T06:36:18.906Z,77018.19
2023-02-02T06:43:20.977Z,77010.00
2023-02-02T06:50:22.978Z,77007.97
2023-02-02T06:57:25.019Z,77007.97
2023-02-02T07:04:26.994Z,77003.88
2023-02-02T07:11:28.915Z,76997.75
2023-02-02T07:18:31.694Z,76987.53
2023-02-02T07:25:33.752Z,76993.66
2023-02-02T07:32:36.244Z,76987.53
2023-02-02T07:39:40.345Z,76991.59
2023-02-02T07:46:46.372Z,76995.69
2023-02-02T07:53:50.350Z,76985.47
2023-02-02T08:00:52.344Z,76995.69
2023-02-02T08:07:54.387Z,76991.59
2023-02-02T08:14:56.509Z,76991.59
2023-02-02T08:21:58.377Z,76997.75
2023-02-02T08:29:03.832Z,76999.78
2023-02-02T08:36:08.471Z,76991.59
2023-02-02T08:43:10.586Z,76979.34
2023-02-02T08:50:12.770Z,76977.31
2023-02-02T08:57:14.728Z,76979.34
2023-02-02T09:04:17.101Z,76985.47
2023-02-02T09:11:20.051Z,76991.59
2023-02-02T09:18:21.964Z,77005.91
2023-02-02T09:25:25.916Z,77003.88
2023-02-02T09:32:27.974Z,77007.97
2023-02-02T09:39:29.788Z,77003.88
2023-02-02T09:46:45.364Z,77010.00
2023-02-02T09:53:56.083Z,77016.13
2023-02-02T10:01:07.903Z,77001.84
2023-02-02T10:08:16.562Z,77012.06
2023-02-02T10:15:33.955Z,77028.41
2023-02-02T10:22:36.195Z,77024.31
2023-02-02T10:29:49.200Z,77020.22
2023-02-02T10:37:03.634Z,77030.44
2023-02-02T10:44:25.809Z,77022.28
2023-02-02T10:51:29.254Z,77024.31
2023-02-02T10:58:39.315Z,77012.06
2023-02-02T11:05:59.971Z,77014.09
2023-02-02T11:13:02.392Z,77028.41
2023-02-02T11:20:24.271Z,77028.41
2023-02-02T11:27:35.563Z,77020.22
2023-02-02T11:34:37.522Z,77010.00
2023-02-02T11:41:39.525Z,77012.06
2023-02-02T11:49:14.139Z,77054.97
2023-02-02T11:56:23.726Z,77097.91
2023-02-02T12:03:25.469Z,77126.50
2023-02-02T12:10:35.698Z,77173.53
2023-02-02T12:17:45.380Z,77210.31
2023-02-02T12:25:15.620Z,77245.06
2023-02-02T12:32:48.475Z,77300.25
2023-02-02T12:40:27.830Z,77302.31
2023-02-02T12:48:07.191Z,77314.56
2023-02-02T12:55:26.596Z,77320.69
2023-02-02T13:02:35.509Z,77328.88
2023-02-02T13:09:45.080Z,77335.00
2023-02-02T13:16:50.471Z,77343.19
2023-02-02T13:24:05.093Z,77359.53
2023-02-02T13:31:13.266Z,77367.72
2023-02-02T13:38:27.181Z,77361.59
2023-02-02T13:45:51.849Z,77371.81
2023-02-02T13:53:26.656Z,77388.16
2023-02-02T14:00:35.760Z,77388.16
2023-02-02T14:07:41.988Z,77386.13
2023-02-02T14:14:47.823Z,77398.38
2023-02-02T14:21:49.669Z,77402.47
2023-02-02T14:28:51.875Z,77422.91
2023-02-02T14:36:01.640Z,77433.13
2023-02-02T14:43:25.634Z,77445.41
2023-02-02T14:50:29.034Z,77465.84
2023-02-02T14:57:34.418Z,77469.94
2023-02-02T15:04:36.551Z,77490.38
2023-02-02T15:12:03.297Z,77508.78
2023-02-02T15:19:13.452Z,77539.44
2023-02-02T15:26:20.314Z,77572.16
2023-02-02T15:33:37.152Z,77586.47
2023-02-02T15:40:39.247Z,77625.28
2023-02-02T15:47:42.516Z,77645.75
2023-02-02T15:54:55.996Z,77666.19
2023-02-02T16:02:07.375Z,77682.53
2023-02-02T16:09:23.350Z,77713.19
2023-02-02T16:16:35.914Z,77725.47
2023-02-02T16:23:38.691Z,77727.50
2023-02-02T16:30:42.493Z,77750.00
2023-02-02T16:37:44.518Z,77762.25
2023-02-02T16:44:46.538Z,77764.31
2023-02-02T16:51:49.905Z,77772.50
2023-02-02T16:58:58.113Z,77790.88
2023-02-02T17:06:02.348Z,77805.19
2023-02-02T17:13:42.124Z,77817.47
2023-02-02T17:20:44.128Z,77846.09
2023-02-02T17:27:46.864Z,77864.50
2023-02-02T17:34:49.129Z,77891.06
2023-02-02T17:41:53.030Z,77911.50
2023-02-02T17:48:55.412Z,77925.81
2023-02-02T17:55:58.119Z,77925.81
2023-02-02T18:03:24.001Z,77952.41
2023-02-02T18:10:27.483Z,77952.41
2023-02-02T18:17:30.752Z,77985.09
2023-02-02T18:24:34.243Z,77997.38
2023-02-02T18:31:37.141Z,78021.91
2023-02-02T18:38:47.181Z,78042.34
2023-02-02T18:46:07.713Z,78062.81
2023-02-02T18:53:10.403Z,78077.13
2023-02-02T19:00:13.155Z,78103.69
2023-02-02T19:07:36.050Z,78122.09
2023-02-02T19:14:38.865Z,78132.31
2023-02-02T19:21:42.413Z,78158.91
2023-02-02T19:28:46.358Z,78165.03
2023-02-02T19:35:51.842Z,78181.38
2023-02-02T19:43:05.239Z,78212.06
2023-02-02T19:50:20.435Z,78226.38
2023-02-02T19:57:33.837Z,78261.13
2023-02-02T20:04:36.713Z,78263.16
2023-02-02T20:11:44.962Z,78271.34
2023-02-02T20:18:53.955Z,78285.66
2023-02-02T20:25:56.486Z,78308.16
2023-02-02T20:33:00.566Z,78344.97
2023-02-02T20:40:17.710Z,78357.22
2023-02-02T20:47:21.552Z,78369.50
2023-02-02T20:54:24.313Z,78379.72
2023-02-02T21:09:06.839Z,78389.94
2023-02-02T21:16:08.756Z,78373.59
2023-02-02T21:23:10.651Z,78389.94
2023-02-02T21:30:14.273Z,78408.34
2023-02-02T21:37:17.005Z,78418.56
2023-02-02T21:44:20.789Z,78426.75
2023-02-02T21:51:34.442Z,78430.84
2023-02-02T21:58:39.952Z,78432.88
2023-02-02T22:05:41.969Z,78445.16
2023-02-02T22:12:43.808Z,78451.28
2023-02-02T22:19:45.744Z,78447.19
2023-02-02T22:26:48.164Z,78457.41
2023-02-02T22:33:50.012Z,78467.63
2023-02-02T22:40:52.801Z,78479.91
2023-02-02T22:47:55.138Z,78492.19
2023-02-02T22:54:57.002Z,78504.44
2023-02-02T23:01:58.970Z,78512.63
2023-02-02T23:09:00.857Z,78516.72
2023-02-02T23:16:02.776Z,78526.94
2023-02-02T23:23:04.727Z,78539.22
2023-02-02T23:30:07.733Z,78541.25
2023-02-02T23:37:09.671Z,78539.22
2023-02-02T23:44:11.829Z,78557.59
2023-02-02T23:51:13.987Z,78549.44
2023-02-02T23:58:16.201Z,78549.44
